createdAt,value
2018-07-12T00:03:13.866Z,99.90
2018-07-12T00:08:16.112Z,99.90
2018-07-12T00:13:18.428Z,99.90
2018-07-12T00:18:20.662Z,99.90
2018-07-12T00:23:22.898Z,99.90
2018-07-12T00:28:25.139Z,99.90
2018-07-12T00:38:29.880Z,99.90
2018-07-12T00:43:32.105Z,99.90
2018-07-12T00:48:34.322Z,99.90
2018-07-12T00:53:36.552Z,99.90
2018-07-12T00:58:38.791Z,99.90
2018-07-12T01:03:41.019Z,99.90
2018-07-12T01:08:43.258Z,99.90
2018-07-12T01:13:45.509Z,99.90
2018-07-12T01:18:47.767Z,99.90
2018-07-12T01:28:52.534Z,99.90
2018-07-12T01:33:55.158Z,99.90
2018-07-12T01:38:57.393Z,99.90
2018-07-12T01:43:59.638Z,99.90
2018-07-12T01:49:01.871Z,99.90
2018-07-12T01:54:04.293Z,99.90
2018-07-12T01:59:06.507Z,99.90
2018-07-12T02:04:08.755Z,99.90
2018-07-12T02:09:11.007Z,99.90
2018-07-12T02:14:13.238Z,99.90
2018-07-12T02:19:15.476Z,99.90
2018-07-12T02:24:17.702Z,99.90
2018-07-12T02:29:19.937Z,99.90
2018-07-12T02:39:25.297Z,99.90
2018-07-12T02:49:30.035Z,99.90
2018-07-12T02:54:32.278Z,99.90
2018-07-12T02:59:34.543Z,99.90
2018-07-12T03:04:37.040Z,99.90
2018-07-12T03:09:39.285Z,99.90
2018-07-12T03:14:41.517Z,99.90
2018-07-12T03:19:43.917Z,99.90
2018-07-12T03:24:46.259Z,99.90
2018-07-12T03:29:48.548Z,99.90
2018-07-12T03:34:50.803Z,99.90
2018-07-12T03:44:55.563Z,99.90
2018-07-12T03:55:00.574Z,99.90
2018-07-12T04:00:02.812Z,99.90
2018-07-12T04:05:05.141Z,99.90
2018-07-12T04:15:09.879Z,99.90
2018-07-12T04:20:12.117Z,99.90
2018-07-12T04:30:16.844Z,99.90
2018-07-12T04:35:19.104Z,99.90
2018-07-12T04:40:21.353Z,99.90
2018-07-12T04:45:23.603Z,99.90
2018-07-12T04:50:25.868Z,99.90
2018-07-12T04:55:28.104Z,99.90
2018-07-12T05:00:30.343Z,99.90
2018-07-12T05:05:32.587Z,99.90
2018-07-12T05:15:43.672Z,99.90
2018-07-12T05:20:45.912Z,99.90
2018-07-12T05:25:48.172Z,99.90
2018-07-12T05:30:50.462Z,99.90
2018-07-12T05:35:53.728Z,99.90
2018-07-12T05:40:57.019Z,99.90
2018-07-12T05:46:00.313Z,99.90
2018-07-12T05:51:03.604Z,99.90
2018-07-12T05:56:06.892Z,99.90
2018-07-12T06:01:21.513Z,99.90
2018-07-12T06:06:24.788Z,99.90
2018-07-12T06:11:28.073Z,99.90
2018-07-12T06:16:31.666Z,99.90
2018-07-12T06:21:35.291Z,99.90
2018-07-12T06:26:38.592Z,99.90
2018-07-12T06:36:44.848Z,99.90
2018-07-12T06:41:48.698Z,99.90
2018-07-12T06:46:52.310Z,99.90
2018-07-12T06:51:55.984Z,99.90
2018-07-12T06:56:59.585Z,99.90
2018-07-12T07:02:03.744Z,99.90
2018-07-12T07:07:08.943Z,99.90
2018-07-12T07:12:14.267Z,99.90
2018-07-12T07:17:19.926Z,99.90
2018-07-12T07:22:24.536Z,99.90
2018-07-12T07:27:29.390Z,99.90
2018-07-12T07:32:32.974Z,99.90
2018-07-12T07:37:37.584Z,99.90
2018-07-12T07:42:42.013Z,99.90
2018-07-12T07:47:45.409Z,99.90
2018-07-12T08:02:59.726Z,99.90
2018-07-12T08:08:04.065Z,99.50
2018-07-12T08:13:08.686Z,98.80
2018-07-12T08:23:17.851Z,98.40
2018-07-12T08:33:28.096Z,95.80
2018-07-12T08:38:31.472Z,96.00
2018-07-12T08:43:34.772Z,95.40
2018-07-12T08:48:40.131Z,94.60
2018-07-12T08:53:45.317Z,94.60
2018-07-12T08:58:49.595Z,95.80
2018-07-12T09:03:54.413Z,92.00
2018-07-12T09:08:57.711Z,92.30
2018-07-12T09:14:01.073Z,90.00
2018-07-12T09:19:06.292Z,90.50
2018-07-12T09:24:09.603Z,89.80
2018-07-12T09:29:12.909Z,88.30
2018-07-12T09:34:17.790Z,85.60
2018-07-12T09:39:21.119Z,86.00
2018-07-12T09:44:24.541Z,88.10
2018-07-12T09:49:29.796Z,81.40
2018-07-12T09:54:35.350Z,80.50
2018-07-12T09:59:39.814Z,79.70
2018-07-12T10:04:44.903Z,80.30
2018-07-12T10:09:53.540Z,79.40
2018-07-12T10:20:07.711Z,69.80
2018-07-12T10:25:12.139Z,71.50
2018-07-12T10:30:17.174Z,64.50
2018-07-12T10:35:20.464Z,59.60
2018-07-12T10:40:26.521Z,58.50
2018-07-12T10:45:29.876Z,64.10
2018-07-12T10:50:34.969Z,63.20
2018-07-12T10:55:40.048Z,61.50
2018-07-12T11:00:43.468Z,60.80
2018-07-12T11:05:48.602Z,62.10
2018-07-12T11:10:53.726Z,63.50
2018-07-12T11:15:58.863Z,60.00
2018-07-12T11:21:04.117Z,60.70
2018-07-12T11:31:10.433Z,58.70
2018-07-12T11:36:13.736Z,59.60
2018-07-12T11:41:16.940Z,59.90
2018-07-12T11:46:20.188Z,59.90
2018-07-12T11:51:24.901Z,58.30
2018-07-12T11:56:31.025Z,54.10
2018-07-12T12:01:36.927Z,51.50
2018-07-12T12:11:46.787Z,53.80
2018-07-12T12:16:52.265Z,51.50
2018-07-12T12:21:55.632Z,49.50
2018-07-12T12:26:58.887Z,45.60
2018-07-12T12:42:09.895Z,43.40
2018-07-12T12:47:15.216Z,44.70
2018-07-12T12:52:20.658Z,47.40
2018-07-12T12:57:24.060Z,46.30
2018-07-12T13:02:27.353Z,42.10
2018-07-12T13:07:37.292Z,47.00
2018-07-12T13:12:43.479Z,47.20
2018-07-12T13:17:49.831Z,42.60
2018-07-12T13:22:54.458Z,40.60
2018-07-12T13:27:59.692Z,40.50
2018-07-12T13:38:09.989Z,41.10
2018-07-12T13:43:16.367Z,37.00
2018-07-12T13:48:21.093Z,40.40
2018-07-12T13:53:26.457Z,42.30
2018-07-12T13:58:31.436Z,44.10
2018-07-12T14:03:36.402Z,41.50
2018-07-12T14:08:41.690Z,41.00
2018-07-12T14:13:45.284Z,43.20
2018-07-12T14:18:48.655Z,45.10
2018-07-12T14:23:53.114Z,45.10
2018-07-12T14:28:58.099Z,43.30
2018-07-12T14:34:04.562Z,40.50
2018-07-12T14:39:10.807Z,44.10
2018-07-12T14:44:17.160Z,43.90
2018-07-12T14:49:22.320Z,44.30
2018-07-12T14:54:27.525Z,42.70
2018-07-12T14:59:32.699Z,43.40
2018-07-12T15:04:37.820Z,41.60
2018-07-12T15:09:43.040Z,40.20
2018-07-12T15:14:47.563Z,41.80
2018-07-12T15:19:51.773Z,39.80
2018-07-12T15:24:55.060Z,40.30
2018-07-12T15:29:58.313Z,40.70
2018-07-12T15:35:01.560Z,41.40
2018-07-12T15:40:04.894Z,45.00
2018-07-12T15:45:08.177Z,45.10
2018-07-12T15:50:11.453Z,46.30
2018-07-12T15:55:14.705Z,44.00
2018-07-12T16:00:18.292Z,44.60
2018-07-12T16:10:24.580Z,45.80
2018-07-12T16:15:27.849Z,45.80
2018-07-12T16:20:31.138Z,47.70
2018-07-12T16:25:34.415Z,47.60
2018-07-12T16:30:37.678Z,49.70
2018-07-12T16:35:40.926Z,48.80
2018-07-12T16:40:44.172Z,48.70
2018-07-12T16:45:47.597Z,47.80
2018-07-12T16:50:50.870Z,48.50
2018-07-12T16:55:54.229Z,48.30
2018-07-12T17:00:57.549Z,49.20
2018-07-12T17:06:01.618Z,48.20
2018-07-12T17:11:05.058Z,46.20
2018-07-12T17:16:09.358Z,48.80
2018-07-12T17:21:19.039Z,47.30
2018-07-12T17:26:22.320Z,46.60
2018-07-12T17:31:25.864Z,49.30
2018-07-12T17:36:29.181Z,48.90
2018-07-12T17:41:32.452Z,49.80
2018-07-12T17:46:35.844Z,49.00
2018-07-12T17:51:39.175Z,49.80
2018-07-12T17:56:42.536Z,51.60
2018-07-12T18:01:45.812Z,51.10
2018-07-12T18:06:49.096Z,50.80
2018-07-12T18:11:52.373Z,52.10
2018-07-12T18:21:58.805Z,52.70
2018-07-12T18:32:05.277Z,54.50
2018-07-12T18:37:08.545Z,56.30
2018-07-12T18:42:11.803Z,57.00
2018-07-12T18:47:15.058Z,57.90
2018-07-12T18:52:18.441Z,58.70
2018-07-12T18:57:21.709Z,59.60
2018-07-12T19:02:25.996Z,60.80
2018-07-12T19:07:29.480Z,62.90
2018-07-12T19:12:32.911Z,64.80
2018-07-12T19:17:36.178Z,67.50
2018-07-12T19:22:39.460Z,68.50
2018-07-12T19:27:42.742Z,70.60
2018-07-12T19:32:46.035Z,72.00
2018-07-12T19:37:49.301Z,72.70
2018-07-12T19:47:56.481Z,71.80
2018-07-12T19:52:59.752Z,74.90
2018-07-12T20:03:06.598Z,77.80
2018-07-12T20:08:09.900Z,78.30
2018-07-12T20:18:16.984Z,80.90
2018-07-12T20:23:20.269Z,80.10
2018-07-12T20:28:23.570Z,80.60
2018-07-12T20:38:30.826Z,81.90
2018-07-12T20:43:34.132Z,82.30
2018-07-12T20:48:37.443Z,82.90
2018-07-12T20:53:42.909Z,82.60
2018-07-12T20:58:46.600Z,82.00
2018-07-12T21:03:50.211Z,81.10
2018-07-12T21:08:54.120Z,79.60
2018-07-12T21:19:02.056Z,78.30
2018-07-12T21:24:06.272Z,77.20
2018-07-12T21:29:10.045Z,77.70
2018-07-12T21:34:13.394Z,77.30
2018-07-12T21:39:16.731Z,77.90
2018-07-12T21:44:21.345Z,78.40
2018-07-12T21:49:25.282Z,80.20
2018-07-12T21:54:28.688Z,81.50
2018-07-12T21:59:31.952Z,82.20
2018-07-12T22:04:35.360Z,81.90
2018-07-12T22:14:41.637Z,81.20
2018-07-12T22:19:44.918Z,80.90
2018-07-12T22:24:48.229Z,81.30
2018-07-12T22:29:51.499Z,80.90
2018-07-12T22:34:54.791Z,81.20
2018-07-12T22:39:58.493Z,80.80
2018-07-12T22:50:07.469Z,81.10
2018-07-12T22:55:10.960Z,80.90
2018-07-12T23:00:14.252Z,80.30
2018-07-12T23:05:17.522Z,80.80
2018-07-12T23:10:20.798Z,80.80
2018-07-12T23:15:24.061Z,81.30
2018-07-12T23:20:27.328Z,82.20
2018-07-12T23:25:30.625Z,83.20
2018-07-12T23:30:33.900Z,82.90
2018-07-12T23:35:37.197Z,82.50
2018-07-12T23:40:40.460Z,83.10
2018-07-12T23:45:43.744Z,84.00
2018-07-12T23:50:47.033Z,84.60
2018-07-12T23:55:50.324Z,85.50
